Time;durP1;ratioP1;P1;durP2;ratioP2;P2;SDS_P1;SDS_P2;PMS_P1;PMS_P2;Temp;Humidity;BMP_temperature;BMP_pressure;BME280_temperature;BME280_humidity;BME280_pressure;Samples;Min_cycle;Max_cycle;Signal;HPM_P1;HPM_P2
2023/04/15 00:00:15;;;;;;;5.82;2.08;;;;;;;;;;4962108;28;20109;-41
2023/04/15 00:02:41;;;;;;;4.53;1.60;;;;;;;;;;4959717;28;20392;-40
2023/04/15 00:05:07;;;;;;;6.47;1.70;;;;;;;;;;4960975;28;20030;-38
2023/04/15 00:07:32;;;;;;;3.47;1.58;;;;;;;;;;4967367;28;20039;-40
2023/04/15 00:09:58;;;;;;;5.50;1.90;;;;;;;;;;4963503;28;20033;-45
2023/04/15 00:12:27;;;;;;;3.20;1.48;;;;;;;;;;4967500;28;20039;-39
2023/04/15 00:14:53;;;;;;;2.60;1.45;;;;;;;;;;4965941;28;20070;-40
2023/04/15 00:17:19;;;;;;;5.40;1.65;;;;;;;;;;4968577;28;20042;-39
2023/04/15 00:19:44;;;;;;;3.63;1.58;;;;;;;;;;4969735;28;20076;-40
2023/04/15 00:22:11;;;;;;;3.33;1.27;;;;;;;;;;4965663;28;20447;-40
2023/04/15 00:24:36;;;;;;;4.10;1.77;;;;;;;;;;4967776;28;20035;-40
2023/04/15 00:27:02;;;;;;;3.85;1.63;;;;;;;;;;4967832;28;20046;-39
2023/04/15 00:29:28;;;;;;;5.28;1.83;;;;;;;;;;4967163;28;20027;-39
2023/04/15 00:31:54;;;;;;;3.75;1.73;;;;;;;;;;4967751;28;20178;-40
2023/04/15 00:34:19;;;;;;;3.95;1.92;;;;;;;;;;4968337;28;20426;-40
2023/04/15 00:36:45;;;;;;;3.67;1.40;;;;;;;;;;4968307;28;20031;-39
2023/04/15 00:39:10;;;;;;;4.13;1.70;;;;;;;;;;4961716;28;20035;-40
2023/04/15 00:41:38;;;;;;;3.90;2.03;;;;;;;;;;4966653;28;20035;-39
2023/04/15 00:44:05;;;;;;;5.65;1.75;;;;;;;;;;4970147;28;20031;-40
2023/04/15 00:46:32;;;;;;;2.75;1.27;;;;;;;;;;4968896;28;20051;-39
2023/04/15 00:48:57;;;;;;;4.65;1.52;;;;;;;;;;4966399;28;20034;-39
2023/04/15 00:51:23;;;;;;;2.75;1.27;;;;;;;;;;4963685;28;20448;-40
2023/04/15 00:53:49;;;;;;;3.83;1.42;;;;;;;;;;4966875;28;20035;-39
2023/04/15 00:56:14;;;;;;;4.82;1.50;;;;;;;;;;4954790;28;20043;-40
2023/04/15 00:58:40;;;;;;;2.90;1.20;;;;;;;;;;4950386;28;20028;-39
2023/04/15 01:01:06;;;;;;;1.85;1.05;;;;;;;;;;4954008;28;20490;-40
2023/04/15 01:03:31;;;;;;;2.33;1.35;;;;;;;;;;4969371;28;20027;-39
2023/04/15 01:05:57;;;;;;;2.42;1.60;;;;;;;;;;4968335;28;20047;-39
2023/04/15 01:08:29;;;;;;;2.38;1.60;;;;;;;;;;4966935;28;20058;-40
2023/04/15 01:11:00;;;;;;;;;;;;;;;;;;4968168;28;20098;-40
2023/04/15 01:13:25;;;;;;;4.15;1.70;;;;;;;;;;4965930;28;19924;-39
2023/04/15 01:15:52;;;;;;;3.72;1.60;;;;;;;;;;4965568;28;20145;-40
2023/04/15 01:18:18;;;;;;;2.10;1.58;;;;;;;;;;4967173;28;20062;-40
2023/04/15 01:20:43;;;;;;;2.22;1.80;;;;;;;;;;4966803;28;20042;-40
2023/04/15 01:23:08;;;;;;;4.47;1.70;;;;;;;;;;4966248;28;20420;-40
2023/04/15 01:25:34;;;;;;;3.13;1.55;;;;;;;;;;4963690;28;20447;-39
2023/04/15 01:28:00;;;;;;;3.92;1.50;;;;;;;;;;4962552;28;20027;-40
2023/04/15 01:30:26;;;;;;;1.63;1.52;;;;;;;;;;4964905;28;20111;-40
2023/04/15 01:32:51;;;;;;;1.88;1.45;;;;;;;;;;4968774;28;20504;-40
2023/04/15 01:35:17;;;;;;;4.47;1.60;;;;;;;;;;4964109;28;20503;-40
2023/04/15 01:37:42;;;;;;;2.80;1.55;;;;;;;;;;4967165;28;20527;-39
2023/04/15 01:40:08;;;;;;;2.05;1.50;;;;;;;;;;4967373;28;20058;-40
2023/04/15 01:42:35;;;;;;;3.65;1.48;;;;;;;;;;4968640;28;20033;-40
2023/04/15 01:45:01;;;;;;;4.63;1.90;;;;;;;;;;4967322;28;20031;-40
2023/04/15 01:47:27;;;;;;;3.00;1.77;;;;;;;;;;4961865;28;20040;-40
2023/04/15 01:49:52;;;;;;;1.80;1.50;;;;;;;;;;4966641;28;20396;-39
2023/04/15 01:52:18;;;;;;;4.57;1.65;;;;;;;;;;4963782;28;20054;-39
2023/04/15 01:54:43;;;;;;;2.08;1.65;;;;;;;;;;4964406;28;20484;-39
2023/04/15 01:57:09;;;;;;;2.30;1.60;;;;;;;;;;4965077;28;20035;-39
2023/04/15 01:59:35;;;;;;;3.47;1.70;;;;;;;;;;4968523;28;20051;-39
2023/04/15 02:02:00;;;;;;;1.75;1.42;;;;;;;;;;4967897;28;20083;-39
2023/04/15 02:04:26;;;;;;;1.80;1.65;;;;;;;;;;4966003;28;20084;-39
2023/04/15 02:06:52;;;;;;;3.83;1.92;;;;;;;;;;4962959;28;20039;-40
2023/04/15 02:09:17;;;;;;;2.28;1.70;;;;;;;;;;4960578;28;20049;-39
2023/04/15 02:11:43;;;;;;;4.25;1.88;;;;;;;;;;4948789;28;20053;-39
2023/04/15 02:14:08;;;;;;;3.22;1.90;;;;;;;;;;4949238;28;20027;-39
2023/04/15 02:16:33;;;;;;;2.35;2.10;;;;;;;;;;4956217;28;20153;-39
2023/04/15 02:18:59;;;;;;;3.58;1.80;;;;;;;;;;4966382;28;20039;-39
2023/04/15 02:21:28;;;;;;;3.53;2.30;;;;;;;;;;4963904;28;20039;-39
2023/04/15 02:23:53;;;;;;;2.03;1.92;;;;;;;;;;4964189;28;20058;-39
2023/04/15 02:26:19;;;;;;;3.95;2.65;;;;;;;;;;4965023;28;20080;-40
2023/04/15 02:28:46;;;;;;;4.75;2.65;;;;;;;;;;4965676;28;20042;-40
2023/04/15 02:31:11;;;;;;;4.32;3.33;;;;;;;;;;4962999;28;20046;-40
2023/04/15 02:33:36;;;;;;;3.35;2.88;;;;;;;;;;4961100;28;20022;-40
2023/04/15 02:36:02;;;;;;;3.35;3.05;;;;;;;;;;4966258;28;20042;-40
2023/04/15 02:38:28;;;;;;;4.28;2.72;;;;;;;;;;4960688;28;20531;-40
2023/04/15 02:40:53;;;;;;;3.00;2.42;;;;;;;;;;4964273;28;20579;-40
2023/04/15 02:43:19;;;;;;;8.82;2.63;;;;;;;;;;4967113;28;20080;-40
2023/04/15 02:45:45;;;;;;;3.63;2.30;;;;;;;;;;4964787;28;20073;-39
2023/04/15 02:48:11;;;;;;;3.83;2.55;;;;;;;;;;4968720;28;20150;-40
2023/04/15 02:50:38;;;;;;;5.18;2.33;;;;;;;;;;4963215;28;20141;-40
2023/04/15 02:53:04;;;;;;;3.03;2.78;;;;;;;;;;4966497;28;20098;-39
2023/04/15 02:55:30;;;;;;;8.20;2.50;;;;;;;;;;4966306;28;20051;-39
2023/04/15 02:57:57;;;;;;;4.05;2.58;;;;;;;;;;4959955;28;20491;-39
2023/04/15 03:00:24;;;;;;;4.82;2.40;;;;;;;;;;4960688;28;20023;-40
2023/04/15 03:02:51;;;;;;;2.60;2.40;;;;;;;;;;4967193;28;20066;-40
2023/04/15 03:05:16;;;;;;;3.40;2.38;;;;;;;;;;4966902;28;20734;-40
2023/04/15 03:07:41;;;;;;;7.35;3.10;;;;;;;;;;4961105;28;20105;-39
2023/04/15 03:10:07;;;;;;;3.95;2.60;;;;;;;;;;4959870;28;20126;-39
2023/04/15 03:12:33;;;;;;;5.45;2.90;;;;;;;;;;4963141;28;20511;-39
2023/04/15 03:14:59;;;;;;;3.63;2.70;;;;;;;;;;4967562;28;20041;-39
2023/04/15 03:17:24;;;;;;;4.38;3.03;;;;;;;;;;4963865;28;20038;-39
2023/04/15 03:19:50;;;;;;;3.10;2.88;;;;;;;;;;4966833;28;20086;-39
2023/04/15 03:22:15;;;;;;;6.82;3.05;;;;;;;;;;4963642;28;20113;-40
2023/04/15 03:24:40;;;;;;;3.60;2.70;;;;;;;;;;4964552;28;20027;-40
2023/04/15 03:27:06;;;;;;;3.65;2.92;;;;;;;;;;4962045;28;20043;-39
2023/04/15 03:29:32;;;;;;;3.15;2.85;;;;;;;;;;4964793;28;20030;-39
2023/04/15 03:31:57;;;;;;;3.58;2.85;;;;;;;;;;4966131;28;20151;-40
2023/04/15 03:34:23;;;;;;;3.20;2.90;;;;;;;;;;4964553;28;20054;-39
2023/04/15 03:36:48;;;;;;;4.07;2.65;;;;;;;;;;4965540;28;20555;-39
2023/04/15 03:39:14;;;;;;;2.88;2.63;;;;;;;;;;4964436;28;20043;-40
2023/04/15 03:41:39;;;;;;;2.83;2.35;;;;;;;;;;4964083;28;20480;-39
2023/04/15 03:44:05;;;;;;;3.70;2.83;;;;;;;;;;4970687;28;20484;-39
2023/04/15 03:46:30;;;;;;;2.75;2.55;;;;;;;;;;4966544;28;20038;-40
2023/04/15 03:48:56;;;;;;;4.68;2.78;;;;;;;;;;4968437;28;20031;-40
2023/04/15 03:51:21;;;;;;;3.03;2.70;;;;;;;;;;4964211;28;20039;-39
2023/04/15 03:53:46;;;;;;;3.88;2.53;;;;;;;;;;4967413;28;20787;-39
2023/04/15 03:56:12;;;;;;;2.92;2.63;;;;;;;;;;4969201;28;20047;-39
2023/04/15 03:58:37;;;;;;;3.15;2.20;;;;;;;;;;4968408;28;20031;-39
2023/04/15 04:01:02;;;;;;;2.30;2.10;;;;;;;;;;4966764;28;20038;-39
2023/04/15 04:03:28;;;;;;;2.50;2.30;;;;;;;;;;4964393;28;20069;-39
2023/04/15 04:05:53;;;;;;;2.50;2.30;;;;;;;;;;4969986;28;20987;-39
2023/04/15 04:08:20;;;;;;;2.13;1.58;;;;;;;;;;4967889;28;20026;-40
2023/04/15 04:10:46;;;;;;;2.95;1.73;;;;;;;;;;4965284;28;20046;-39
2023/04/15 04:13:11;;;;;;;2.08;1.50;;;;;;;;;;4968942;28;20043;-39
2023/04/15 04:15:36;;;;;;;3.75;2.00;;;;;;;;;;4969974;28;20057;-39
2023/04/15 04:18:02;;;;;;;3.55;1.90;;;;;;;;;;4970229;28;20022;-39
2023/04/15 04:20:27;;;;;;;2.67;2.47;;;;;;;;;;4971206;28;20372;-39
2023/04/15 04:22:53;;;;;;;3.85;2.75;;;;;;;;;;4967637;28;20028;-39
2023/04/15 04:25:18;;;;;;;3.92;2.90;;;;;;;;;;4962644;28;20035;-39
2023/04/15 04:27:44;;;;;;;3.22;2.60;;;;;;;;;;4970730;28;20448;-39
2023/04/15 04:30:10;;;;;;;3.05;2.85;;;;;;;;;;4967291;28;20033;-39
2023/04/15 04:32:35;;;;;;;3.40;2.53;;;;;;;;;;4965998;28;20051;-39
2023/04/15 04:35:01;;;;;;;3.40;2.45;;;;;;;;;;4968193;28;20039;-39
2023/04/15 04:37:27;;;;;;;3.67;2.63;;;;;;;;;;4970743;28;20039;-39
2023/04/15 04:39:52;;;;;;;5.43;2.47;;;;;;;;;;4971052;28;20117;-39
2023/04/15 04:42:18;;;;;;;4.03;2.30;;;;;;;;;;4965901;28;20039;-40
2023/04/15 04:44:43;;;;;;;2.75;2.15;;;;;;;;;;4963912;28;20109;-39
2023/04/15 04:47:08;;;;;;;3.03;2.08;;;;;;;;;;4952116;28;20032;-40
2023/04/15 04:49:34;;;;;;;4.35;1.63;;;;;;;;;;4949490;28;20078;-39
2023/04/15 04:52:00;;;;;;;5.95;1.90;;;;;;;;;;4963824;28;20050;-39
2023/04/15 04:54:26;;;;;;;2.53;1.65;;;;;;;;;;4967778;28;20066;-39
2023/04/15 04:56:52;;;;;;;2.50;1.60;;;;;;;;;;4965093;28;20043;-40
2023/04/15 04:59:17;;;;;;;2.80;1.45;;;;;;;;;;4967151;28;20060;-39
2023/04/15 05:01:42;;;;;;;1.00;1.00;;;;;;;;;;4967334;28;20085;-39
2023/04/15 05:04:08;;;;;;;1.85;1.10;;;;;;;;;;4964433;28;20034;-39
2023/04/15 05:06:35;;;;;;;3.05;2.05;;;;;;;;;;4965297;28;20112;-39
2023/04/15 05:09:01;;;;;;;1.33;0.98;;;;;;;;;;4967062;28;20035;-39
2023/04/15 05:11:27;;;;;;;2.22;1.27;;;;;;;;;;4965540;28;20047;-39
2023/04/15 05:13:52;;;;;;;1.25;1.10;;;;;;;;;;4969082;28;20066;-39
2023/04/15 05:16:18;;;;;;;0.80;0.80;;;;;;;;;;4967774;28;20468;-39
2023/04/15 05:18:44;;;;;;;1.65;0.90;;;;;;;;;;4968304;28;20033;-39
2023/04/15 05:21:09;;;;;;;2.35;1.13;;;;;;;;;;4967543;28;20470;-39
2023/04/15 05:23:35;;;;;;;2.03;1.35;;;;;;;;;;4968288;28;20027;-40
2023/04/15 05:26:00;;;;;;;10.25;1.15;;;;;;;;;;4962551;28;20052;-39
2023/04/15 05:28:26;;;;;;;7.22;1.13;;;;;;;;;;4965072;28;20023;-39
2023/04/15 05:30:51;;;;;;;2.13;1.48;;;;;;;;;;4966071;28;20043;-39
2023/04/15 05:33:17;;;;;;;3.53;1.48;;;;;;;;;;4963142;28;20096;-39
2023/04/15 05:35:43;;;;;;;3.47;1.30;;;;;;;;;;4966412;28;20635;-39
2023/04/15 05:38:08;;;;;;;1.63;0.95;;;;;;;;;;4966660;28;20114;-39
2023/04/15 05:40:34;;;;;;;2.53;1.17;;;;;;;;;;4966088;28;20381;-39
2023/04/15 05:42:59;;;;;;;4.25;1.30;;;;;;;;;;4966339;28;20167;-40
2023/04/15 05:45:25;;;;;;;3.65;1.42;;;;;;;;;;4967430;28;20039;-40
2023/04/15 05:47:52;;;;;;;0.98;0.88;;;;;;;;;;4968497;28;20035;-39
2023/04/15 05:50:18;;;;;;;2.20;1.20;;;;;;;;;;4968739;28;20027;-39
2023/04/15 05:52:44;;;;;;;3.05;1.08;;;;;;;;;;4963547;28;20041;-39
2023/04/15 05:55:10;;;;;;;2.25;1.05;;;;;;;;;;4966881;28;20034;-39
2023/04/15 05:57:36;;;;;;;1.02;1.02;;;;;;;;;;4967541;28;20115;-39
2023/04/15 06:00:04;;;;;;;1.65;1.00;;;;;;;;;;4968744;28;20416;-39
2023/04/15 06:02:30;;;;;;;2.10;1.00;;;;;;;;;;4966196;28;20109;-39
2023/04/15 06:04:56;;;;;;;1.27;0.80;;;;;;;;;;4966542;28;20093;-39
2023/04/15 06:07:22;;;;;;;2.38;0.80;;;;;;;;;;4960791;28;20098;-39
2023/04/15 06:09:47;;;;;;;2.25;1.25;;;;;;;;;;4969775;28;20026;-39
2023/04/15 06:12:13;;;;;;;1.15;0.82;;;;;;;;;;4966385;28;20043;-39
2023/04/15 06:14:39;;;;;;;1.02;0.70;;;;;;;;;;4962756;28;20455;-39
2023/04/15 06:17:04;;;;;;;2.05;1.08;;;;;;;;;;4963532;28;20055;-39
2023/04/15 06:19:30;;;;;;;2.00;1.00;;;;;;;;;;4965682;28;20081;-39
2023/04/15 06:21:57;;;;;;;1.45;0.80;;;;;;;;;;4963576;28;20039;-40
2023/04/15 06:24:22;;;;;;;0.95;0.70;;;;;;;;;;4962913;28;20049;-39
2023/04/15 06:26:48;;;;;;;1.98;0.85;;;;;;;;;;4961933;28;20050;-39
2023/04/15 06:29:13;;;;;;;0.70;0.70;;;;;;;;;;4968924;28;20114;-40
2023/04/15 06:31:38;;;;;;;1.35;0.90;;;;;;;;;;4959318;28;20038;-39
2023/04/15 06:34:04;;;;;;;2.67;1.02;;;;;;;;;;4948567;28;20484;-39
2023/04/15 06:36:29;;;;;;;0.80;0.80;;;;;;;;;;4955492;28;20165;-39
2023/04/15 06:38:55;;;;;;;1.05;0.63;;;;;;;;;;4966260;28;20038;-40
2023/04/15 06:41:21;;;;;;;3.30;1.15;;;;;;;;;;4964283;28;20070;-39
2023/04/15 06:43:47;;;;;;;1.42;0.90;;;;;;;;;;4967357;28;20633;-39
2023/04/15 06:46:12;;;;;;;1.13;0.82;;;;;;;;;;4963601;28;20098;-40
2023/04/15 06:48:37;;;;;;;1.02;0.90;;;;;;;;;;4961029;28;20082;-40
2023/04/15 06:51:03;;;;;;;1.60;0.88;;;;;;;;;;4963232;28;20030;-39
2023/04/15 06:53:28;;;;;;;1.17;0.70;;;;;;;;;;4960464;28;20066;-39
2023/04/15 06:55:54;;;;;;;0.80;0.80;;;;;;;;;;4966183;28;20062;-39
2023/04/15 06:58:20;;;;;;;4.43;1.08;;;;;;;;;;4963160;28;20480;-39
2023/04/15 07:00:46;;;;;;;0.65;0.60;;;;;;;;;;4963433;28;20035;-40
2023/04/15 07:03:12;;;;;;;3.15;0.90;;;;;;;;;;4946280;29;20032;-40
2023/04/15 07:05:37;;;;;;;0.95;0.70;;;;;;;;;;4952600;28;20042;-40
2023/04/15 07:08:03;;;;;;;2.25;1.00;;;;;;;;;;4966084;28;20027;-39
2023/04/15 07:10:29;;;;;;;1.80;0.80;;;;;;;;;;4966513;28;20512;-39
2023/04/15 07:12:55;;;;;;;1.17;0.70;;;;;;;;;;4965255;28;20041;-39
2023/04/15 07:15:21;;;;;;;2.85;0.80;;;;;;;;;;4964026;28;20058;-40
2023/04/15 07:17:46;;;;;;;1.13;0.70;;;;;;;;;;4964449;28;20059;-39
2023/04/15 07:20:12;;;;;;;1.60;0.70;;;;;;;;;;4964584;28;20592;-39
2023/04/15 07:22:38;;;;;;;0.70;0.60;;;;;;;;;;4966612;28;20054;-39
2023/04/15 07:25:04;;;;;;;0.80;0.80;;;;;;;;;;4961992;28;20589;-38
2023/04/15 07:27:30;;;;;;;1.35;0.65;;;;;;;;;;4963535;28;20076;-40
2023/04/15 07:29:55;;;;;;;0.47;0.40;;;;;;;;;;4963475;28;20504;-40
2023/04/15 07:32:20;;;;;;;0.50;0.45;;;;;;;;;;4962568;28;20039;-40
2023/04/15 07:34:46;;;;;;;0.93;0.50;;;;;;;;;;4965498;28;20485;-40
2023/04/15 07:37:11;;;;;;;1.60;0.50;;;;;;;;;;4962910;28;20043;-40
2023/04/15 07:39:37;;;;;;;1.35;0.60;;;;;;;;;;4959208;28;20151;-40
2023/04/15 07:42:03;;;;;;;1.38;0.68;;;;;;;;;;4963363;28;20038;-39
2023/04/15 07:44:29;;;;;;;0.47;0.40;;;;;;;;;;4967759;28;20026;-39
2023/04/15 07:46:55;;;;;;;2.75;0.28;;;;;;;;;;4964947;28;20080;-40
2023/04/15 07:49:20;;;;;;;0.85;0.52;;;;;;;;;;4961729;28;20039;-39
2023/04/15 07:51:46;;;;;;;0.68;0.32;;;;;;;;;;4963621;28;20051;-39
2023/04/15 07:54:12;;;;;;;2.55;0.30;;;;;;;;;;4966765;28;20042;-40
2023/04/15 07:56:37;;;;;;;1.30;0.40;;;;;;;;;;4960771;28;20134;-39
2023/04/15 07:59:04;;;;;;;0.60;0.30;;;;;;;;;;4967085;28;20040;-39
2023/04/15 08:01:30;;;;;;;0.43;0.20;;;;;;;;;;4964952;28;20053;-39
2023/04/15 08:03:56;;;;;;;3.55;0.40;;;;;;;;;;4962341;28;20035;-39
2023/04/15 08:06:22;;;;;;;0.35;0.32;;;;;;;;;;4961998;28;20070;-39
2023/04/15 08:08:47;;;;;;;1.85;0.57;;;;;;;;;;4963682;28;20077;-40
2023/04/15 08:11:13;;;;;;;0.52;0.30;;;;;;;;;;4961170;28;20054;-40
2023/04/15 08:13:38;;;;;;;0.52;0.40;;;;;;;;;;4963445;28;20064;-40
2023/04/15 08:16:20;;;;;;;1.77;0.30;;;;;;;;;;4965003;28;20043;-39
2023/04/15 08:18:49;;;;;;;1.10;0.30;;;;;;;;;;4964105;28;20029;-40
2023/04/15 08:21:15;;;;;;;1.20;0.38;;;;;;;;;;4959550;28;20031;-40
2023/04/15 08:23:41;;;;;;;0.50;0.38;;;;;;;;;;4964148;28;20031;-39
2023/04/15 08:26:07;;;;;;;0.52;0.20;;;;;;;;;;4963730;28;20043;-40
2023/04/15 08:28:33;;;;;;;3.30;0.43;;;;;;;;;;4966717;28;20023;-40
2023/04/15 08:30:58;;;;;;;3.45;0.60;;;;;;;;;;4971811;28;20400;-40
2023/04/15 08:33:24;;;;;;;1.58;0.63;;;;;;;;;;4964886;28;20038;-39
2023/04/15 08:35:50;;;;;;;3.85;0.77;;;;;;;;;;4970847;28;21175;-39
2023/04/15 08:38:15;;;;;;;1.13;0.60;;;;;;;;;;4966731;28;20468;-39
2023/04/15 08:40:43;;;;;;;0.40;0.40;;;;;;;;;;4968073;28;20039;-40
2023/04/15 08:43:11;;;;;;;0.95;0.70;;;;;;;;;;4962992;28;20527;-40
2023/04/15 08:45:40;;;;;;;1.45;0.60;;;;;;;;;;4967207;28;20046;-39
2023/04/15 08:48:07;;;;;;;0.65;0.40;;;;;;;;;;4970692;28;20118;-43
2023/04/15 08:50:33;;;;;;;4.07;0.50;;;;;;;;;;4969504;28;20046;-40
2023/04/15 08:52:59;;;;;;;0.88;0.43;;;;;;;;;;4971730;28;20436;-40
2023/04/15 08:55:32;;;;;;;0.77;0.60;;;;;;;;;;4965961;28;20061;-39
2023/04/15 08:57:58;;;;;;;3.72;0.43;;;;;;;;;;4970260;28;20023;-40
2023/04/15 09:00:24;;;;;;;2.70;0.82;;;;;;;;;;4967212;28;20450;-39
2023/04/15 09:02:51;;;;;;;0.63;0.40;;;;;;;;;;4967917;28;20035;-40
2023/04/15 09:05:16;;;;;;;8.27;0.70;;;;;;;;;;4963150;28;20065;-40
2023/04/15 09:07:42;;;;;;;0.82;0.50;;;;;;;;;;4970417;28;20495;-40
2023/04/15 09:10:08;;;;;;;3.00;0.50;;;;;;;;;;4967506;28;20061;-40
2023/04/15 09:12:35;;;;;;;0.98;0.55;;;;;;;;;;4967693;28;20441;-40
2023/04/15 09:15:00;;;;;;;0.95;0.38;;;;;;;;;;4965757;28;20538;-39
2023/04/15 09:17:26;;;;;;;2.13;0.60;;;;;;;;;;4969403;28;20042;-40
2023/04/15 09:20:12;;;;;;;1.00;0.43;;;;;;;;;;4969092;28;20089;-40
2023/04/15 09:22:39;;;;;;;0.93;0.55;;;;;;;;;;4968765;28;20050;-39
2023/04/15 09:25:28;;;;;;;0.30;0.30;;;;;;;;;;4966465;28;20128;-39
2023/04/15 09:28:00;;;;;;;2.75;0.65;;;;;;;;;;4963081;28;20043;-41
2023/04/15 09:30:28;;;;;;;3.03;0.32;;;;;;;;;;4968339;28;20499;-41
2023/04/15 09:32:57;;;;;;;1.70;0.47;;;;;;;;;;4967042;28;20402;-40
2023/04/15 09:35:26;;;;;;;2.08;0.40;;;;;;;;;;4970146;28;21445;-40
2023/04/15 09:37:52;;;;;;;0.60;0.38;;;;;;;;;;4966926;28;20031;-40
2023/04/15 09:40:37;;;;;;;0.43;0.30;;;;;;;;;;4965083;28;20027;-40
2023/04/15 09:43:04;;;;;;;2.17;0.40;;;;;;;;;;4965556;28;20162;-40
2023/04/15 09:45:31;;;;;;;0.93;0.70;;;;;;;;;;4963677;28;20047;-41
2023/04/15 09:47:58;;;;;;;1.20;0.57;;;;;;;;;;4965754;28;20054;-40
2023/04/15 09:50:27;;;;;;;1.00;0.63;;;;;;;;;;4967241;28;20045;-40
2023/04/15 09:52:52;;;;;;;1.48;0.30;;;;;;;;;;4967982;28;20058;-40
2023/04/15 09:55:18;;;;;;;1.20;0.65;;;;;;;;;;4967945;28;20782;-39
2023/04/15 09:57:45;;;;;;;2.83;0.52;;;;;;;;;;4965207;28;20030;-40
2023/04/15 10:00:12;;;;;;;1.67;0.57;;;;;;;;;;4965191;28;20034;-39
2023/04/15 10:02:39;;;;;;;1.15;0.40;;;;;;;;;;4967635;28;20476;-40
2023/04/15 10:05:06;;;;;;;0.28;0.20;;;;;;;;;;4968369;28;20053;-40
2023/04/15 10:07:31;;;;;;;0.30;0.20;;;;;;;;;;4967612;28;20030;-40
2023/04/15 10:10:00;;;;;;;0.40;0.20;;;;;;;;;;4969600;28;20365;-40
2023/04/15 10:12:27;;;;;;;1.02;0.57;;;;;;;;;;4966933;28;20061;-40
2023/04/15 10:15:03;;;;;;;1.05;0.90;;;;;;;;;;4969377;28;20041;-40
2023/04/15 10:17:32;;;;;;;1.73;0.70;;;;;;;;;;4966138;28;20052;-39
2023/04/15 10:20:00;;;;;;;0.40;0.40;;;;;;;;;;4962377;28;20066;-40
2023/04/15 10:22:27;;;;;;;2.92;1.10;;;;;;;;;;4963868;28;20535;-40
2023/04/15 10:24:52;;;;;;;0.65;0.50;;;;;;;;;;4964634;28;20042;-40
2023/04/15 10:27:19;;;;;;;3.85;1.30;;;;;;;;;;4964180;28;20046;-40
2023/04/15 10:29:45;;;;;;;5.78;0.60;;;;;;;;;;4968153;28;20476;-40
2023/04/15 10:32:11;;;;;;;0.52;0.20;;;;;;;;;;4964407;28;20038;-40
2023/04/15 10:34:37;;;;;;;0.68;0.20;;;;;;;;;;4964583;28;20044;-40
2023/04/15 10:37:03;;;;;;;0.40;0.30;;;;;;;;;;4963980;28;20043;-40
2023/04/15 10:39:32;;;;;;;1.23;1.00;;;;;;;;;;4965765;28;20038;-40
2023/04/15 10:42:16;;;;;;;0.68;0.60;;;;;;;;;;4965540;28;20042;-40
2023/04/15 10:44:55;;;;;;;3.08;0.70;;;;;;;;;;4963173;28;20037;-40
2023/04/15 10:47:21;;;;;;;3.17;0.50;;;;;;;;;;4966166;28;20039;-40
2023/04/15 10:49:49;;;;;;;1.65;0.50;;;;;;;;;;4963094;28;20019;-40
2023/04/15 10:52:17;;;;;;;0.57;0.57;;;;;;;;;;4945211;28;20595;-41
2023/04/15 10:54:43;;;;;;;0.20;0.20;;;;;;;;;;4945674;28;20084;-40
2023/04/15 10:57:21;;;;;;;0.32;0.32;;;;;;;;;;4961481;28;20461;-40
2023/04/15 10:59:57;;;;;;;0.65;0.45;;;;;;;;;;4965527;28;20038;-40
2023/04/15 11:02:41;;;;;;;2.33;0.40;;;;;;;;;;4967675;28;20035;-40
2023/04/15 11:05:07;;;;;;;0.43;0.22;;;;;;;;;;4964139;28;20030;-39
2023/04/15 11:07:47;;;;;;;1.95;0.40;;;;;;;;;;4966266;28;20093;-40
2023/04/15 11:10:13;;;;;;;0.30;0.20;;;;;;;;;;4964718;28;20037;-40
2023/04/15 11:12:39;;;;;;;5.55;0.63;;;;;;;;;;4963441;28;20072;-39
2023/04/15 11:15:27;;;;;;;1.48;0.30;;;;;;;;;;4964008;28;20154;-39
2023/04/15 11:17:53;;;;;;;0.75;0.40;;;;;;;;;;4967410;28;20100;-40
2023/04/15 11:20:18;;;;;;;0.40;0.40;;;;;;;;;;4963769;28;20031;-40
2023/04/15 11:22:51;;;;;;;0.38;0.30;;;;;;;;;;4967145;28;20058;-39
2023/04/15 11:25:27;;;;;;;0.57;0.35;;;;;;;;;;4964914;28;20027;-40
2023/04/15 11:27:54;;;;;;;0.82;0.82;;;;;;;;;;4962636;28;20042;-39
2023/04/15 11:30:24;;;;;;;1.50;0.47;;;;;;;;;;4966527;28;20053;-40
2023/04/15 11:32:51;;;;;;;0.47;0.40;;;;;;;;;;4965879;28;20050;-39
2023/04/15 11:35:17;;;;;;;2.03;0.50;;;;;;;;;;4967856;28;20035;-39
2023/04/15 11:37:44;;;;;;;1.88;0.30;;;;;;;;;;4963656;28;20050;-41
2023/04/15 11:40:09;;;;;;;4.15;0.60;;;;;;;;;;4957941;28;20061;-40
2023/04/15 11:42:35;;;;;;;0.40;0.35;;;;;;;;;;4970149;28;20829;-39
2023/04/15 11:45:11;;;;;;;0.52;0.30;;;;;;;;;;4965827;28;20920;-40
2023/04/15 11:47:38;;;;;;;2.20;0.50;;;;;;;;;;4964672;28;20589;-40
2023/04/15 11:50:22;;;;;;;0.60;0.40;;;;;;;;;;4965093;28;20093;-40
2023/04/15 11:52:59;;;;;;;1.25;0.60;;;;;;;;;;4963874;28;20042;-40
2023/04/15 11:55:25;;;;;;;2.88;0.28;;;;;;;;;;4965202;28;20458;-39
2023/04/15 11:58:09;;;;;;;3.90;0.35;;;;;;;;;;4969300;28;20563;-41
2023/04/15 12:00:35;;;;;;;1.10;0.50;;;;;;;;;;4967238;28;20050;-40
2023/04/15 12:03:26;;;;;;;0.30;0.30;;;;;;;;;;4967653;28;20022;-40
2023/04/15 12:06:18;;;;;;;0.50;0.40;;;;;;;;;;4968254;28;20074;-40
2023/04/15 12:08:57;;;;;;;0.63;0.40;;;;;;;;;;4961279;28;20038;-40
2023/04/15 12:11:25;;;;;;;2.72;0.10;;;;;;;;;;4964862;28;20071;-40
2023/04/15 12:13:53;;;;;;;0.10;0.10;;;;;;;;;;4969059;28;20067;-40
2023/04/15 12:16:20;;;;;;;3.60;0.30;;;;;;;;;;4969933;28;20101;-40
2023/04/15 12:18:56;;;;;;;0.47;0.13;;;;;;;;;;4966303;28;20038;-39
2023/04/15 12:21:23;;;;;;;0.90;0.20;;;;;;;;;;4970429;28;20046;-40
2023/04/15 12:23:56;;;;;;;2.40;0.50;;;;;;;;;;4966462;28;20036;-40
2023/04/15 12:26:30;;;;;;;0.17;0.17;;;;;;;;;;4980721;28;20039;-40
2023/04/15 12:29:02;;;;;;;0.10;0.10;;;;;;;;;;4969025;28;20027;-40
2023/04/15 12:31:28;;;;;;;0.70;0.32;;;;;;;;;;4970012;28;20043;-40
2023/04/15 12:33:58;;;;;;;0.08;0.08;;;;;;;;;;4965653;28;20106;-40
2023/04/15 12:36:23;;;;;;;1.55;0.20;;;;;;;;;;4969384;28;20055;-39
2023/04/15 12:38:49;;;;;;;0.30;0.30;;;;;;;;;;4968604;28;20089;-39
2023/04/15 12:41:15;;;;;;;0.32;0.20;;;;;;;;;;4969529;28;20100;-40
2023/04/15 12:43:41;;;;;;;2.20;0.30;;;;;;;;;;4963861;28;20415;-40
2023/04/15 12:46:07;;;;;;;0.20;0.20;;;;;;;;;;4969503;28;20078;-40
2023/04/15 12:48:33;;;;;;;2.40;0.50;;;;;;;;;;4971509;28;20030;-39
2023/04/15 12:50:59;;;;;;;0.20;0.20;;;;;;;;;;4970107;28;20039;-39
2023/04/15 12:53:25;;;;;;;0.20;0.20;;;;;;;;;;4966756;28;20011;-40
2023/04/15 12:55:50;;;;;;;0.25;0.25;;;;;;;;;;4971063;28;20402;-40
2023/04/15 12:58:16;;;;;;;0.57;0.30;;;;;;;;;;4967999;28;20023;-39
2023/04/15 13:00:41;;;;;;;3.72;0.35;;;;;;;;;;4964864;28;20133;-40
2023/04/15 13:03:07;;;;;;;0.75;0.30;;;;;;;;;;4969414;28;20023;-40
2023/04/15 13:05:32;;;;;;;0.40;0.30;;;;;;;;;;4970532;28;20738;-40
2023/04/15 13:07:57;;;;;;;0.82;0.40;;;;;;;;;;4968258;28;21005;-40
2023/04/15 13:10:23;;;;;;;0.95;0.20;;;;;;;;;;4967478;28;21387;-39
2023/04/15 13:12:51;;;;;;;0.10;0.10;;;;;;;;;;4969094;28;20387;-39
2023/04/15 13:15:19;;;;;;;1.00;0.40;;;;;;;;;;4969330;28;20080;-40
2023/04/15 13:17:45;;;;;;;0.15;0.15;;;;;;;;;;4964674;28;20106;-39
2023/04/15 13:20:10;;;;;;;1.70;0.38;;;;;;;;;;4962674;28;20122;-39
2023/04/15 13:22:35;;;;;;;0.40;0.30;;;;;;;;;;4966392;28;20471;-40
2023/04/15 13:25:01;;;;;;;1.15;0.35;;;;;;;;;;4967414;28;20050;-39
2023/04/15 13:27:26;;;;;;;2.90;0.93;;;;;;;;;;4963998;28;20035;-39
2023/04/15 13:29:51;;;;;;;0.45;0.30;;;;;;;;;;4968873;28;20068;-40
2023/04/15 13:32:17;;;;;;;2.55;0.32;;;;;;;;;;4967329;28;20031;-40
2023/04/15 13:34:42;;;;;;;0.77;0.28;;;;;;;;;;4967125;28;20383;-39
2023/04/15 13:37:08;;;;;;;0.30;0.30;;;;;;;;;;4960415;28;20096;-40
2023/04/15 13:39:34;;;;;;;3.33;0.40;;;;;;;;;;4968636;28;20100;-39
2023/04/15 13:41:59;;;;;;;0.65;0.20;;;;;;;;;;4964669;28;20071;-39
2023/04/15 13:44:25;;;;;;;0.77;0.20;;;;;;;;;;4965927;28;20032;-39
2023/04/15 13:46:51;;;;;;;2.40;0.32;;;;;;;;;;4968746;28;20047;-39
2023/04/15 13:49:16;;;;;;;3.55;0.30;;;;;;;;;;4962259;28;20491;-39
2023/04/15 13:51:42;;;;;;;0.52;0.52;;;;;;;;;;4967484;28;20054;-39
2023/04/15 13:54:07;;;;;;;5.32;0.22;;;;;;;;;;4964494;28;20027;-39
2023/04/15 13:56:32;;;;;;;1.50;0.20;;;;;;;;;;4967849;28;20385;-39
2023/04/15 13:59:01;;;;;;;2.47;0.25;;;;;;;;;;4963060;28;20031;-39
2023/04/15 14:01:26;;;;;;;0.80;0.30;;;;;;;;;;4965343;28;20031;-39
2023/04/15 14:03:51;;;;;;;0.25;0.10;;;;;;;;;;4970053;28;20100;-39
2023/04/15 14:06:17;;;;;;;1.08;0.47;;;;;;;;;;4963303;28;20039;-39
2023/04/15 14:08:42;;;;;;;2.08;1.10;;;;;;;;;;4967171;28;20027;-39
2023/04/15 14:11:08;;;;;;;0.63;0.25;;;;;;;;;;4967438;28;20043;-39
2023/04/15 14:13:33;;;;;;;1.98;0.40;;;;;;;;;;4968695;28;20023;-39
2023/04/15 14:15:59;;;;;;;2.13;0.30;;;;;;;;;;4968127;28;20046;-39
2023/04/15 14:18:24;;;;;;;0.30;0.30;;;;;;;;;;4964749;28;20038;-39
2023/04/15 14:20:50;;;;;;;4.22;0.55;;;;;;;;;;4961609;28;20712;-39
2023/04/15 14:23:16;;;;;;;0.30;0.20;;;;;;;;;;4947814;28;20031;-39
2023/04/15 14:25:41;;;;;;;0.38;0.30;;;;;;;;;;4950295;28;20499;-39
2023/04/15 14:28:06;;;;;;;0.38;0.28;;;;;;;;;;4966272;28;20249;-39
2023/04/15 14:30:32;;;;;;;1.75;0.43;;;;;;;;;;4962784;28;20047;-39
2023/04/15 14:32:57;;;;;;;0.30;0.30;;;;;;;;;;4964070;28;20114;-39
2023/04/15 14:35:25;;;;;;;0.32;0.32;;;;;;;;;;4964762;28;20112;-39
2023/04/15 14:37:51;;;;;;;0.80;0.40;;;;;;;;;;4962308;28;20033;-38
2023/04/15 14:40:18;;;;;;;0.70;0.40;;;;;;;;;;4966309;28;21028;-39